Time;durP1;ratioP1;P1;durP2;ratioP2;P2;SDS_P1;SDS_P2;PMS_P1;PMS_P2;Temp;Humidity;BMP_temperature;BMP_pressure;BME280_temperature;BME280_humidity;BME280_pressure;Samples;Min_cycle;Max_cycle;Signal;HPM_P1;HPM_P2
2022/10/28 00:01:04;;;;;;;23.02;9.43;;;15.50;99.90;;;;;;5131725;27;20022;-53
2022/10/28 00:03:30;;;;;;;25.25;9.80;;;15.50;99.90;;;;;;5113854;28;20031;-53
2022/10/28 00:06:11;;;;;;;22.83;9.40;;;15.50;99.90;;;;;;5124497;27;20019;-51
2022/10/28 00:08:37;;;;;;;21.45;9.35;;;15.60;99.90;;;;;;5132099;27;20055;-54
2022/10/28 00:11:13;;;;;;;20.58;8.50;;;15.50;99.90;;;;;;5131925;27;20583;-55
2022/10/28 00:13:40;;;;;;;19.15;9.07;;;15.60;99.90;;;;;;5103327;27;20491;-49
2022/10/28 00:16:09;;;;;;;21.95;9.55;;;15.60;99.90;;;;;;5131909;27;20034;-51
2022/10/28 00:18:35;;;;;;;17.92;8.40;;;15.60;99.90;;;;;;5131879;27;20138;-52
2022/10/28 00:21:03;;;;;;;17.20;8.75;;;15.60;99.90;;;;;;5131978;27;20062;-51
2022/10/28 00:23:29;;;;;;;18.02;8.77;;;15.60;99.90;;;;;;5131942;27;20027;-52
2022/10/28 00:26:02;;;;;;;22.73;9.45;;;15.60;99.90;;;;;;5131914;27;20034;-51
2022/10/28 00:28:28;;;;;;;17.13;8.82;;;15.70;99.90;;;;;;5131557;27;20144;-52
2022/10/28 00:30:53;;;;;;;18.83;9.82;;;15.70;99.90;;;;;;5131780;27;20503;-49
2022/10/28 00:33:19;;;;;;;27.35;10.32;;;15.80;99.90;;;;;;5126742;28;20049;-53
2022/10/28 00:35:44;;;;;;;18.98;8.88;;;15.80;99.90;;;;;;5131841;27;20035;-54
2022/10/28 00:38:10;;;;;;;17.27;9.18;;;15.70;99.90;;;;;;5131830;28;20019;-54
2022/10/28 00:40:35;;;;;;;18.98;8.98;;;15.70;99.90;;;;;;5134375;27;20048;-53
2022/10/28 00:43:01;;;;;;;21.65;9.68;;;15.70;99.90;;;;;;5136098;27;20027;-49
2022/10/28 00:45:27;;;;;;;25.38;11.50;;;15.70;99.90;;;;;;5135572;27;20083;-52
2022/10/28 00:47:59;;;;;;;25.75;12.65;;;15.70;99.90;;;;;;5135951;27;20094;-53
2022/10/28 00:50:40;;;;;;;20.73;9.38;;;15.70;99.90;;;;;;5135755;27;20066;-52
2022/10/28 00:53:15;;;;;;;23.67;10.10;;;15.60;99.90;;;;;;5135897;27;20399;-51
2022/10/28 00:55:42;;;;;;;19.70;9.43;;;15.20;99.90;;;;;;5135688;27;20023;-50
2022/10/28 00:58:09;;;;;;;23.60;9.82;;;16.10;99.90;;;;;;5135853;27;20023;-52
2022/10/28 01:00:34;;;;;;;19.05;9.82;;;15.60;99.90;;;;;;5135397;27;20468;-52
2022/10/28 01:03:00;;;;;;;24.48;10.20;;;15.70;99.90;;;;;;5117204;27;20027;-49
2022/10/28 01:05:29;;;;;;;21.90;10.25;;;15.70;99.90;;;;;;5135600;27;20030;-50
2022/10/28 01:07:58;;;;;;;23.85;9.15;;;15.30;99.90;;;;;;5135418;27;20047;-50
2022/10/28 01:10:48;;;;;;;18.13;10.07;;;15.70;99.90;;;;;;5135432;27;20034;-50
2022/10/28 01:13:33;;;;;;;26.13;10.68;;;15.70;99.90;;;;;;5101229;27;20039;-49
2022/10/28 01:16:06;;;;;;;22.25;10.68;;;15.70;99.90;;;;;;5109134;27;20066;-53
2022/10/28 01:19:07;;;;;;;22.52;9.48;;;15.70;99.90;;;;;;5135053;27;20429;-49
2022/10/28 01:21:56;;;;;;;23.58;9.90;;;15.70;99.90;;;;;;5134142;27;20535;-52
2022/10/28 01:24:55;;;;;;;20.13;9.18;;;15.60;99.90;;;;;;5135310;27;20023;-53
2022/10/28 01:27:44;;;;;;;28.20;9.75;;;15.60;99.90;;;;;;5108459;27;20021;-49
2022/10/28 01:30:18;;;;;;;25.80;10.50;;;15.50;99.90;;;;;;5134693;27;20027;-52
2022/10/28 01:33:02;;;;;;;22.27;10.07;;;15.50;99.90;;;;;;5126976;27;20031;-53
2022/10/28 01:35:40;;;;;;;24.27;10.23;;;15.50;99.90;;;;;;5123754;27;20030;-52
2022/10/28 01:38:08;;;;;;;23.63;10.18;;;15.50;99.90;;;;;;5135181;27;20402;-56
2022/10/28 01:41:10;;;;;;;29.63;10.68;;;15.50;99.90;;;;;;5134880;27;20106;-53
2022/10/28 01:43:43;;;;;;;19.65;9.73;;;15.50;99.90;;;;;;5134477;27;20023;-56
2022/10/28 01:46:20;;;;;;;22.48;11.55;;;15.50;99.90;;;;;;5134839;27;20567;-54
2022/10/28 01:48:57;;;;;;;20.67;10.20;;;15.60;99.90;;;;;;5134808;27;20105;-49
2022/10/28 01:51:46;;;;;;;21.33;10.68;;;15.60;99.90;;;;;;5134725;27;20051;-59
2022/10/28 01:54:17;;;;;;;21.00;10.02;;;15.60;99.90;;;;;;5134590;27;20072;-51
2022/10/28 01:56:46;;;;;;;22.13;11.50;;;15.60;99.90;;;;;;5134655;27;20019;-52
2022/10/28 01:59:17;;;;;;;20.67;10.27;;;15.60;99.90;;;;;;5134423;27;20019;-52
2022/10/28 02:01:43;;;;;;;22.73;11.10;;;15.60;99.90;;;;;;5126607;27;20050;-53
2022/10/28 02:04:08;;;;;;;23.85;10.85;;;15.60;99.90;;;;;;5125635;27;20487;-54
2022/10/28 02:06:37;;;;;;;21.58;11.52;;;15.60;99.90;;;;;;5125930;27;20020;-50
2022/10/28 02:09:07;;;;;;;24.93;10.30;;;15.50;99.90;;;;;;5133879;27;20043;-53
2022/10/28 02:11:53;;;;;;;20.63;9.98;;;15.50;99.90;;;;;;5134274;27;20395;-57
2022/10/28 02:14:34;;;;;;;18.30;10.82;;;15.50;99.90;;;;;;5132994;27;20387;-50
2022/10/28 02:17:24;;;;;;;25.90;11.63;;;15.50;99.90;;;;;;5134061;27;20027;-55
2022/10/28 02:19:59;;;;;;;25.90;12.50;;;15.50;99.90;;;;;;5134185;27;20023;-51
2022/10/28 02:22:50;;;;;;;23.77;11.30;;;15.40;99.90;;;;;;5128747;27;20019;-57
2022/10/28 02:25:21;;;;;;;26.52;10.90;;;15.50;99.90;;;;;;5125487;27;20027;-52
2022/10/28 02:27:57;;;;;;;26.85;12.05;;;15.50;99.90;;;;;;5134325;27;20046;-55
2022/10/28 02:30:54;;;;;;;23.38;10.40;;;15.50;99.90;;;;;;5133362;27;20023;-54
2022/10/28 02:33:33;;;;;;;23.50;11.15;;;15.40;99.90;;;;;;5115760;27;20027;-53
2022/10/28 02:36:08;;;;;;;22.27;10.82;;;15.50;99.90;;;;;;5134078;27;20019;-52
2022/10/28 02:38:42;;;;;;;26.67;12.52;;;15.40;99.90;;;;;;5133810;27;20747;-54
2022/10/28 02:41:19;;;;;;;18.45;10.45;;;15.50;99.90;;;;;;5118026;27;20416;-56
2022/10/28 02:43:48;;;;;;;26.58;12.48;;;15.50;99.90;;;;;;5117837;27;20035;-50
2022/10/28 02:46:15;;;;;;;22.58;11.18;;;15.50;99.90;;;;;;5133590;27;20019;-55
2022/10/28 02:48:48;;;;;;;20.27;10.02;;;15.50;99.90;;;;;;5133677;27;20024;-50
2022/10/28 02:51:23;;;;;;;19.63;9.88;;;15.50;99.90;;;;;;5133593;27;20035;-56
2022/10/28 02:54:00;;;;;;;23.90;10.23;;;15.40;99.90;;;;;;5133610;27;20019;-51
2022/10/28 02:56:30;;;;;;;18.85;10.32;;;15.50;99.90;;;;;;5133333;27;20034;-54
2022/10/28 02:58:56;;;;;;;24.27;9.63;;;15.50;99.90;;;;;;5133464;27;20027;-56
2022/10/28 03:01:21;;;;;;;28.10;10.43;;;15.50;99.90;;;;;;5109651;27;20021;-49
2022/10/28 03:03:47;;;;;;;31.50;9.57;;;15.50;99.90;;;;;;5132772;27;20027;-52
2022/10/28 03:06:12;;;;;;;22.10;9.98;;;15.50;99.90;;;;;;5133240;27;20057;-53
2022/10/28 03:08:38;;;;;;;21.67;9.77;;;15.60;99.90;;;;;;5133152;27;20050;-51
2022/10/28 03:11:04;;;;;;;27.05;10.43;;;15.60;99.90;;;;;;5133053;27;20078;-52
2022/10/28 03:13:29;;;;;;;26.15;10.77;;;15.60;99.90;;;;;;5128622;27;20039;-52
2022/10/28 03:15:55;;;;;;;20.05;10.52;;;15.60;99.90;;;;;;5122974;27;20094;-50
2022/10/28 03:18:21;;;;;;;27.15;10.75;;;15.50;99.90;;;;;;5132898;27;20114;-50
2022/10/28 03:20:46;;;;;;;19.92;11.02;;;15.50;99.90;;;;;;5133037;27;20031;-51
2022/10/28 03:23:12;;;;;;;28.30;11.45;;;15.50;99.90;;;;;;5132609;27;20027;-54
2022/10/28 03:25:38;;;;;;;21.45;11.00;;;15.50;99.90;;;;;;5132663;27;20027;-54
2022/10/28 03:28:03;;;;;;;31.73;11.75;;;15.50;99.90;;;;;;5114301;27;20023;-52
2022/10/28 03:30:29;;;;;;;24.67;10.90;;;15.50;99.90;;;;;;5128865;27;20168;-51
2022/10/28 03:32:55;;;;;;;27.23;10.80;;;15.50;99.90;;;;;;5104455;27;20071;-53
2022/10/28 03:35:20;;;;;;;25.35;10.68;;;15.50;99.90;;;;;;5132369;27;20363;-52
2022/10/28 03:37:46;;;;;;;27.58;12.43;;;15.60;99.90;;;;;;5132806;27;20030;-52
2022/10/28 03:40:12;;;;;;;29.05;11.35;;;15.50;99.90;;;;;;5132547;27;20023;-51
2022/10/28 03:42:40;;;;;;;28.73;11.00;;;15.50;99.90;;;;;;5104025;27;20023;-54
2022/10/28 03:45:06;;;;;;;27.20;11.25;;;15.50;99.90;;;;;;5132708;27;20015;-51
2022/10/28 03:47:33;;;;;;;22.42;9.23;;;15.50;99.90;;;;;;5132326;27;20029;-52
2022/10/28 03:49:59;;;;;;;27.15;10.43;;;15.50;99.90;;;;;;5132249;27;20506;-56
2022/10/28 03:52:24;;;;;;;24.08;9.85;;;15.50;99.90;;;;;;5132295;27;20038;-52
2022/10/28 03:54:50;;;;;;;25.13;10.55;;;15.40;99.90;;;;;;5132053;27;20023;-49
2022/10/28 03:57:16;;;;;;;27.90;10.38;;;15.40;99.90;;;;;;5132138;27;20031;-53
2022/10/28 03:59:41;;;;;;;24.15;10.18;;;15.40;99.90;;;;;;5132160;27;20015;-54
2022/10/28 04:02:07;;;;;;;24.15;9.77;;;15.30;99.90;;;;;;5127808;27;20377;-52
2022/10/28 04:04:32;;;;;;;24.08;9.57;;;15.30;99.90;;;;;;5131953;27;20054;-52
2022/10/28 04:06:58;;;;;;;23.27;9.40;;;15.30;99.90;;;;;;5132080;27;20087;-48
2022/10/28 04:09:24;;;;;;;26.33;10.15;;;15.30;99.90;;;;;;5132039;27;20035;-54
2022/10/28 04:11:49;;;;;;;25.45;10.27;;;15.30;99.90;;;;;;5128248;27;20038;-50
2022/10/28 04:14:15;;;;;;;22.75;9.57;;;15.30;99.90;;;;;;5108905;27;20023;-53
2022/10/28 04:16:40;;;;;;;25.10;10.25;;;15.30;99.90;;;;;;5128276;27;20110;-52
2022/10/28 04:19:06;;;;;;;22.27;8.77;;;15.30;99.90;;;;;;5132051;27;20023;-51
2022/10/28 04:21:31;;;;;;;23.08;8.57;;;15.30;99.90;;;;;;5131859;27;20053;-52
2022/10/28 04:23:57;;;;;;;24.40;8.85;;;15.20;99.90;;;;;;5131969;27;20019;-51
2022/10/28 04:26:23;;;;;;;16.48;8.57;;;15.20;99.90;;;;;;5131749;27;20119;-48
2022/10/28 04:28:48;;;;;;;19.55;8.27;;;15.20;99.90;;;;;;5131712;27;20035;-51
2022/10/28 04:31:14;;;;;;;20.77;8.43;;;15.30;99.90;;;;;;5122442;27;20088;-50
2022/10/28 04:33:40;;;;;;;25.70;8.63;;;15.30;99.90;;;;;;5127959;28;20106;-52
2022/10/28 04:36:06;;;;;;;18.50;8.35;;;15.30;99.90;;;;;;5131863;27;20031;-49
2022/10/28 04:38:31;;;;;;;18.38;8.50;;;15.30;99.90;;;;;;5131701;27;20106;-54
2022/10/28 04:40:57;;;;;;;21.85;8.18;;;15.30;99.90;;;;;;5131719;27;20536;-53
2022/10/28 04:43:23;;;;;;;20.40;8.63;;;15.30;99.90;;;;;;5131776;28;20035;-51
2022/10/28 04:45:48;;;;;;;23.85;8.75;;;15.30;99.90;;;;;;5131571;27;20023;-48
2022/10/28 04:48:14;;;;;;;21.40;9.07;;;15.30;99.90;;;;;;5131686;27;20421;-48
2022/10/28 04:50:40;;;;;;;18.30;9.25;;;15.40;99.90;;;;;;5131630;28;20035;-48
2022/10/28 04:53:05;;;;;;;27.15;9.07;;;15.50;99.90;;;;;;5131588;27;20064;-49
2022/10/28 04:55:31;;;;;;;24.33;9.20;;;15.50;99.90;;;;;;5131874;27;20058;-48
2022/10/28 04:57:59;;;;;;;21.75;7.50;;;15.50;99.90;;;;;;5131633;28;20374;-51
2022/10/28 05:00:26;;;;;;;20.70;8.13;;;15.60;99.90;;;;;;5127034;28;20063;-55
2022/10/28 05:02:53;;;;;;;24.27;7.25;;;15.60;99.90;;;;;;5130151;28;20072;-52
2022/10/28 05:05:18;;;;;;;21.02;7.03;;;15.60;99.90;;;;;;5131578;28;20030;-57
2022/10/28 05:07:44;;;;;;;21.95;7.72;;;15.60;99.90;;;;;;5131047;27;20039;-50
2022/10/28 05:10:11;;;;;;;21.98;7.60;;;15.60;99.90;;;;;;5131736;28;20034;-49
2022/10/28 05:12:39;;;;;;;27.38;8.23;;;15.70;99.90;;;;;;5131363;28;20023;-49
2022/10/28 05:15:06;;;;;;;24.15;8.65;;;15.70;99.90;;;;;;5114342;28;20018;-53
2022/10/28 05:17:31;;;;;;;19.70;7.43;;;15.80;99.90;;;;;;5120670;28;20110;-49
2022/10/28 05:19:57;;;;;;;22.17;8.18;;;15.80;99.90;;;;;;5113056;28;20106;-55
2022/10/28 05:22:23;;;;;;;28.92;8.48;;;15.80;99.90;;;;;;5131391;28;20051;-52
2022/10/28 05:24:48;;;;;;;20.55;8.15;;;15.90;99.90;;;;;;5131805;27;20035;-54
2022/10/28 05:27:15;;;;;;;15.55;6.72;;;15.80;99.90;;;;;;5134785;27;20467;-48
2022/10/28 05:29:41;;;;;;;16.63;6.30;;;15.90;99.90;;;;;;5135322;27;20019;-54
2022/10/28 05:32:06;;;;;;;27.98;7.97;;;15.90;99.90;;;;;;5131288;27;20030;-53
2022/10/28 05:34:32;;;;;;;19.27;6.63;;;15.90;99.90;;;;;;5119050;27;20391;-53
2022/10/28 05:36:57;;;;;;;22.48;7.20;;;16.00;99.90;;;;;;5130113;27;20034;-50
2022/10/28 05:39:23;;;;;;;19.30;6.68;;;16.00;99.90;;;;;;5135003;27;20016;-49
2022/10/28 05:41:49;;;;;;;17.65;6.40;;;16.00;99.90;;;;;;5134986;27;20130;-50
2022/10/28 05:44:14;;;;;;;20.67;7.82;;;16.00;99.90;;;;;;5134850;27;20023;-53
2022/10/28 05:46:43;;;;;;;23.67;6.00;;;16.10;99.90;;;;;;5134822;27;20026;-51
2022/10/28 05:49:08;;;;;;;20.30;6.50;;;16.00;99.90;;;;;;5134765;27;20023;-51
2022/10/28 05:51:34;;;;;;;15.82;6.38;;;16.00;99.90;;;;;;5134559;27;20332;-52
2022/10/28 05:53:59;;;;;;;18.35;6.18;;;16.00;99.90;;;;;;5134674;27;20027;-51
2022/10/28 05:56:25;;;;;;;19.50;6.97;;;16.00;99.90;;;;;;5134893;27;20356;-51
2022/10/28 05:58:51;;;;;;;24.77;6.43;;;16.00;99.90;;;;;;5134725;27;20019;-52
2022/10/28 06:01:16;;;;;;;22.92;5.45;;;16.00;99.90;;;;;;5125520;27;20432;-51
2022/10/28 06:03:42;;;;;;;20.10;5.95;;;16.10;99.90;;;;;;5134618;27;20027;-53
2022/10/28 06:06:07;;;;;;;21.27;5.57;;;16.10;99.90;;;;;;5134401;27;20027;-50
2022/10/28 06:08:33;;;;;;;20.13;5.32;;;16.20;99.90;;;;;;5134361;27;20466;-51
2022/10/28 06:11:00;;;;;;;19.38;5.88;;;16.30;99.90;;;;;;5134203;27;20027;-56
2022/10/28 06:13:25;;;;;;;22.83;5.82;;;16.30;99.90;;;;;;5130802;27;20035;-51
2022/10/28 06:15:53;;;;;;;15.70;5.18;;;16.40;99.90;;;;;;5123681;27;20415;-55
2022/10/28 06:18:18;;;;;;;15.48;5.03;;;16.40;99.90;;;;;;5134122;27;20030;-52
2022/10/28 06:20:50;;;;;;;18.30;5.70;;;16.50;99.90;;;;;;5134144;27;20031;-52
2022/10/28 06:23:16;;;;;;;14.93;5.05;;;16.40;99.90;;;;;;5133942;27;20023;-51
2022/10/28 06:25:42;;;;;;;17.52;5.60;;;16.60;99.90;;;;;;5134024;27;20034;-51
2022/10/28 06:28:08;;;;;;;17.50;5.20;;;16.40;99.90;;;;;;5134053;27;20033;-56
2022/10/28 06:30:34;;;;;;;17.85;5.40;;;16.40;99.90;;;;;;5130161;27;20376;-52
2022/10/28 06:33:00;;;;;;;18.25;5.78;;;16.50;99.90;;;;;;5133874;27;20038;-58
2022/10/28 06:35:26;;;;;;;15.88;5.50;;;16.50;99.90;;;;;;5133837;27;20034;-55
2022/10/28 06:37:56;;;;;;;23.08;5.78;;;16.60;99.90;;;;;;5133051;27;20023;-52
2022/10/28 06:40:23;;;;;;;19.77;5.85;;;16.60;99.90;;;;;;5133741;27;20027;-51
2022/10/28 06:42:55;;;;;;;17.42;5.32;;;16.60;99.90;;;;;;5133792;27;20043;-56
2022/10/28 06:45:21;;;;;;;19.15;5.75;;;16.60;99.90;;;;;;5133502;27;20066;-49
2022/10/28 06:47:46;;;;;;;14.93;5.25;;;16.60;99.90;;;;;;5133579;27;20023;-51
2022/10/28 06:50:12;;;;;;;23.23;6.18;;;16.60;99.90;;;;;;5133553;27;20027;-51
2022/10/28 06:52:38;;;;;;;22.52;5.75;;;16.60;99.90;;;;;;5133393;27;20068;-52
2022/10/28 06:55:03;;;;;;;20.33;5.68;;;16.50;99.90;;;;;;5115179;27;20023;-48
2022/10/28 06:57:29;;;;;;;25.40;5.68;;;16.50;99.90;;;;;;5133160;27;20023;-49
2022/10/28 06:59:55;;;;;;;16.63;5.10;;;16.50;99.90;;;;;;5130783;27;20063;-48
2022/10/28 07:02:21;;;;;;;19.50;5.93;;;16.50;99.90;;;;;;5113440;27;20058;-48
2022/10/28 07:04:46;;;;;;;19.77;5.40;;;16.50;99.90;;;;;;5112970;28;20027;-55
2022/10/28 07:07:12;;;;;;;20.10;5.90;;;16.50;99.90;;;;;;5112413;28;20055;-48
2022/10/28 07:09:38;;;;;;;19.25;4.95;;;16.50;99.90;;;;;;5112453;28;20091;-48
2022/10/28 07:12:05;;;;;;;16.55;5.80;;;16.50;99.90;;;;;;5112449;28;20047;-54
2022/10/28 07:14:33;;;;;;;23.27;7.03;;;16.50;99.90;;;;;;5112564;28;20047;-47
2022/10/28 07:16:59;;;;;;;16.80;5.63;;;16.50;99.90;;;;;;5123885;27;20019;-49
2022/10/28 07:19:25;;;;;;;20.38;5.90;;;16.60;99.90;;;;;;5133075;27;20075;-56
2022/10/28 07:21:50;;;;;;;22.10;5.40;;;16.60;99.90;;;;;;5124260;27;20064;-51
2022/10/28 07:24:16;;;;;;;18.38;5.40;;;16.60;99.90;;;;;;5133152;27;20355;-52
2022/10/28 07:26:41;;;;;;;17.90;5.32;;;16.60;99.90;;;;;;5123280;27;20088;-54
2022/10/28 07:29:07;;;;;;;23.15;5.45;;;16.70;99.90;;;;;;5114437;27;20023;-49
2022/10/28 07:31:33;;;;;;;18.90;5.10;;;16.70;99.90;;;;;;5105467;28;20031;-49
2022/10/28 07:33:58;;;;;;;26.17;5.65;;;16.70;99.90;;;;;;5131408;27;20026;-49
2022/10/28 07:36:24;;;;;;;23.38;5.93;;;16.70;99.90;;;;;;5124652;27;20495;-54
2022/10/28 07:38:51;;;;;;;15.65;5.60;;;16.70;99.90;;;;;;5129393;27;20114;-54
2022/10/28 07:41:18;;;;;;;21.13;5.60;;;16.70;99.90;;;;;;5126158;27;20023;-55
2022/10/28 07:43:44;;;;;;;16.58;4.78;;;16.80;99.90;;;;;;5123186;27;20107;-55
2022/10/28 07:46:10;;;;;;;22.73;5.07;;;16.80;99.90;;;;;;5125692;27;20413;-52
2022/10/28 07:48:36;;;;;;;17.48;5.28;;;16.80;99.90;;;;;;5124736;27;20018;-54
2022/10/28 07:51:04;;;;;;;15.73;5.10;;;16.90;99.90;;;;;;5125938;27;20148;-53
2022/10/28 07:53:30;;;;;;;19.75;5.68;;;16.90;99.90;;;;;;5122035;27;20112;-50
2022/10/28 07:55:57;;;;;;;16.73;5.60;;;17.00;99.90;;;;;;5126162;27;20026;-55
2022/10/28 07:58:23;;;;;;;15.77;4.78;;;17.00;99.90;;;;;;5128679;27;20069;-52
2022/10/28 08:00:48;;;;;;;16.13;5.28;;;17.00;99.90;;;;;;5128038;27;20027;-53
2022/10/28 08:03:14;;;;;;;15.55;5.20;;;17.10;99.90;;;;;;5126824;27;20051;-53
2022/10/28 08:05:39;;;;;;;21.92;5.03;;;17.20;99.90;;;;;;5117854;27;20118;-50
2022/10/28 08:08:05;;;;;;;26.92;5.68;;;17.20;99.90;;;;;;5111056;28;20031;-54
2022/10/28 08:10:31;;;;;;;14.43;4.40;;;17.30;99.90;;;;;;5111423;28;20035;-52
2022/10/28 08:12:59;;;;;;;16.60;4.63;;;17.40;99.90;;;;;;5110998;28;20027;-50
2022/10/28 08:15:26;;;;;;;23.00;4.65;;;17.50;99.90;;;;;;5103307;27;20023;-52
2022/10/28 08:17:56;;;;;;;13.18;4.32;;;17.60;99.90;;;;;;5113773;27;20023;-54
2022/10/28 08:20:22;;;;;;;18.85;5.82;;;17.70;99.90;;;;;;5111442;28;20015;-52
2022/10/28 08:22:48;;;;;;;16.83;4.32;;;17.80;99.90;;;;;;5111131;28;20480;-56
2022/10/28 08:25:14;;;;;;;15.50;3.60;;;17.90;99.90;;;;;;5113143;27;20032;-52
2022/10/28 08:27:41;;;;;;;13.55;3.90;;;18.00;99.90;;;;;;5119619;27;20023;-51
2022/10/28 08:30:08;;;;;;;15.20;3.47;;;18.10;99.90;;;;;;5122969;27;20031;-51
2022/10/28 08:32:34;;;;;;;14.68;3.63;;;18.10;99.90;;;;;;5119705;27;20038;-50
2022/10/28 08:34:59;;;;;;;20.42;4.53;;;18.10;99.90;;;;;;5127413;27;20425;-45
2022/10/28 08:37:25;;;;;;;14.88;4.10;;;18.00;99.90;;;;;;5114635;28;20052;-47
2022/10/28 08:39:51;;;;;;;16.08;3.63;;;17.90;99.90;;;;;;5111208;28;20023;-51
2022/10/28 08:42:40;;;;;;;13.65;3.88;;;17.80;99.90;;;;;;5110809;28;20104;-49
2022/10/28 08:45:12;;;;;;;;;;;17.80;99.90;;;;;;5112585;28;20091;-55
2022/10/28 08:47:57;;;;;;;15.85;3.33;;;17.80;99.90;;;;;;5117299;28;19908;-51
2022/10/28 08:50:26;;;;;;;16.60;3.67;;;17.80;99.90;;;;;;5108849;28;20076;-46
2022/10/28 08:53:10;;;;;;;;;;;17.80;99.90;;;;;;5110185;28;20040;-51
2022/10/28 08:55:41;;;;;;;16.95;4.03;;;17.80;99.90;;;;;;5110019;28;20252;-46
2022/10/28 08:58:10;;;;;;;18.45;3.80;;;17.80;99.90;;;;;;5098887;28;20027;-49
2022/10/28 09:00:37;;;;;;;22.83;4.32;;;17.70;99.90;;;;;;5093206;28;20077;-53
2022/10/28 09:03:12;;;;;;;18.65;4.50;;;17.70;99.90;;;;;;5117483;27;20099;-51
2022/10/28 09:05:43;;;;;;;19.75;3.50;;;17.70;99.90;;;;;;5115070;27;20115;-51
2022/10/28 09:08:22;;;;;;;17.98;3.30;;;17.70;99.90;;;;;;5123031;27;20067;-52
2022/10/28 09:11:10;;;;;;;14.75;3.03;;;17.70;99.90;;;;;;5126690;27;20023;-50
2022/10/28 09:13:41;;;;;;;21.33;3.13;;;17.70;99.90;;;;;;5124521;27;20019;-51
2022/10/28 09:16:30;;;;;;;19.05;3.13;;;17.70;99.90;;;;;;5122073;27;20020;-51
2022/10/28 09:18:57;;;;;;;;;;;17.70;99.90;;;;;;5124673;27;20035;-53
2022/10/28 09:21:47;;;;;;;7.68;2.00;;;17.70;99.90;;;;;;5122821;27;20021;-53
2022/10/28 09:24:23;;;;;;;12.38;2.20;;;17.80;99.90;;;;;;5110323;28;20040;-51
2022/10/28 09:27:20;;;;;;;6.68;1.42;;;17.80;99.90;;;;;;5113296;27;20031;-51
2022/10/28 09:30:23;;;;;;;6.40;1.23;;;17.80;99.90;;;;;;5110270;28;20035;-57
2022/10/28 09:33:01;;;;;;;9.48;1.70;;;17.70;99.90;;;;;;5114985;27;20123;-52
2022/10/28 09:35:31;;;;;;;7.47;1.40;;;17.80;99.90;;;;;;5112194;27;20028;-52
2022/10/28 09:38:12;;;;;;;6.80;1.27;;;17.80;99.90;;;;;;5120336;27;20483;-52
2022/10/28 09:40:41;;;;;;;6.63;1.40;;;17.90;99.90;;;;;;5124065;27;20051;-50
2022/10/28 09:43:15;;;;;;;6.75;1.27;;;17.90;99.90;;;;;;5112807;28;20016;-55
2022/10/28 09:45:45;;;;;;;8.98;1.25;;;17.90;99.90;;;;;;5113125;28;20055;-49
2022/10/28 09:48:28;;;;;;;6.95;1.20;;;17.90;99.90;;;;;;5124406;27;20433;-55
2022/10/28 09:50:55;;;;;;;9.00;2.47;;;17.80;99.90;;;;;;5118475;27;20043;-51
2022/10/28 09:53:55;;;;;;;12.20;1.20;;;18.90;99.90;;;;;;5103927;27;20027;-59
2022/10/28 09:56:21;;;;;;;10.07;1.70;;;17.90;99.90;;;;;;5126925;27;20027;-51
2022/10/28 09:58:47;;;;;;;11.48;1.60;;;18.10;99.90;;;;;;5128657;27;20088;-45
2022/10/28 10:01:15;;;;;;;11.05;1.63;;;18.10;99.90;;;;;;5123360;27;20125;-46
2022/10/28 10:03:42;;;;;;;7.93;2.13;;;18.30;99.90;;;;;;5112922;28;20043;-51
2022/10/28 10:06:23;;;;;;;7.93;1.38;;;18.50;99.90;;;;;;5112528;28;20062;-51
2022/10/28 10:08:49;;;;;;;7.47;1.33;;;18.60;99.90;;;;;;5112599;28;20063;-49
2022/10/28 10:11:29;;;;;;;11.82;1.83;;;18.70;99.90;;;;;;5112786;28;20488;-44
2022/10/28 10:13:58;;;;;;;12.98;2.20;;;18.90;99.90;;;;;;5112788;28;20032;-51
2022/10/28 10:16:43;;;;;;;8.02;1.60;;;19.00;99.90;;;;;;5128031;27;20015;-48
2022/10/28 10:19:10;;;;;;;13.15;1.60;;;19.00;99.90;;;;;;5132246;27;20015;-46
2022/10/28 10:21:48;;;;;;;10.57;2.10;;;18.80;99.90;;;;;;5131810;27;20050;-48
2022/10/28 10:24:24;;;;;;;10.32;1.80;;;18.60;99.90;;;;;;5131523;27;20023;-48
2022/10/28 10:26:51;;;;;;;12.68;1.98;;;18.60;99.90;;;;;;5132111;27;20051;-51
2022/10/28 10:29:17;;;;;;;16.45;1.90;;;18.70;99.90;;;;;;5132355;27;20265;-55
2022/10/28 10:31:45;;;;;;;15.57;1.73;;;19.20;99.90;;;;;;5119263;27;20054;-49
2022/10/28 10:34:22;;;;;;;11.32;1.88;;;19.90;99.90;;;;;;5111113;27;20012;-50
2022/10/28 10:36:54;;;;;;;9.18;1.67;;;21.30;99.90;;;;;;5115381;27;20028;-47
2022/10/28 10:39:33;;;;;;;9.25;1.73;;;21.50;99.90;;;;;;5116388;27;20019;-50
2022/10/28 10:41:59;;;;;;;14.27;2.33;;;20.60;99.90;;;;;;5123366;27;20084;-50
2022/10/28 10:44:34;;;;;;;11.35;2.15;;;22.20;99.90;;;;;;5130514;27;20031;-51
2022/10/28 10:47:01;;;;;;;11.88;2.00;;;22.40;99.90;;;;;;5128643;27;20035;-49
2022/10/28 10:49:28;;;;;;;12.20;1.63;;;22.20;99.90;;;;;;5129548;27;20058;-54
2022/10/28 10:51:59;;;;;;;11.38;1.88;;;22.00;99.90;;;;;;5129540;27;20485;-55
2022/10/28 10:54:28;;;;;;;13.60;2.05;;;21.70;99.90;;;;;;5110177;27;20026;-49
2022/10/28 10:57:05;;;;;;;11.65;1.92;;;22.10;99.90;;;;;;5114059;27;20743;-47
2022/10/28 10:59:31;;;;;;;12.32;1.90;;;22.40;99.90;;;;;;5105798;27;20400;-47
2022/10/28 11:01:57;;;;;;;13.55;2.35;;;22.40;99.90;;;;;;5110969;27;20019;-48
2022/10/28 11:04:25;;;;;;;11.30;2.05;;;22.30;99.90;;;;;;5112526;28;20058;-53
2022/10/28 11:06:56;;;;;;;14.18;2.70;;;22.60;99.90;;;;;;5113246;27;20008;-46
2022/10/28 11:09:33;;;;;;;13.60;1.70;;;22.30;99.90;;;;;;5106816;27;20425;-53
2022/10/28 11:11:59;;;;;;;9.05;1.60;;;20.90;99.90;;;;;;5108488;27;20087;-57
2022/10/28 11:14:29;;;;;;;10.55;1.70;;;20.60;99.90;;;;;;5112988;27;20115;-47
2022/10/28 11:16:56;;;;;;;;;;;19.80;99.90;;;;;;5117678;27;20471;-50
2022/10/28 11:19:23;;;;;;;11.98;1.73;;;19.30;99.90;;;;;;5118135;27;20324;-48
2022/10/28 11:22:13;;;;;;;12.85;2.05;;;18.90;99.90;;;;;;5110306;27;20072;-53
2022/10/28 11:24:57;;;;;;;11.18;2.03;;;18.60;99.90;;;;;;5100331;27;20065;-49
2022/10/28 11:27:38;;;;;;;12.25;2.08;;;18.40;99.90;;;;;;5113521;27;20011;-52
2022/10/28 11:30:09;;;;;;;10.43;2.20;;;18.80;99.90;;;;;;5115079;27;20031;-47
2022/10/28 11:32:47;;;;;;;10.05;1.73;;;19.30;99.90;;;;;;5108419;27;20039;-54
2022/10/28 11:35:21;;;;;;;9.38;1.70;;;19.50;99.90;;;;;;5111070;27;20480;-51
2022/10/28 11:38:01;;;;;;;12.90;2.00;;;19.30;99.90;;;;;;5111952;27;20054;-52
2022/10/28 11:40:54;;;;;;;11.70;1.77;;;19.10;99.90;;;;;;5123205;27;20019;-49
2022/10/28 11:43:39;;;;;;;9.68;1.48;;;18.90;99.90;;;;;;5126096;27;20023;-49
2022/10/28 11:46:14;;;;;;;9.70;1.60;;;18.60;99.90;;;;;;5129308;27;20027;-50
2022/10/28 11:48:56;;;;;;;8.50;1.50;;;18.50;99.90;;;;;;5118014;27;20095;-48
2022/10/28 11:51:40;;;;;;;11.48;1.55;;;18.50;99.90;;;;;;5099064;28;20043;-51
2022/10/28 11:54:30;;;;;;;11.65;2.20;;;19.20;99.90;;;;;;5109616;27;20487;-49
2022/10/28 11:57:10;;;;;;;12.90;1.80;;;18.90;99.90;;;;;;5112734;27;20069;-52
2022/10/28 11:59:56;;;;;;;6.63;1.42;;;19.20;99.90;;;;;;5109212;28;20027;-46
2022/10/28 12:02:38;;;;;;;9.90;2.13;;;20.00;99.90;;;;;;5109134;28;20050;-52
2022/10/28 12:05:19;;;;;;;10.50;1.90;;;20.80;99.90;;;;;;5110069;27;20054;-53
2022/10/28 12:07:58;;;;;;;12.98;1.95;;;20.80;99.90;;;;;;5106262;28;20043;-52
2022/10/28 12:10:45;;;;;;;13.07;1.67;;;20.60;99.90;;;;;;5111326;28;20035;-55
2022/10/28 12:13:50;;;;;;;7.68;1.58;;;20.60;99.90;;;;;;5111243;28;20040;-53
2022/10/28 12:16:37;;;;;;;9.52;2.00;;;20.60;99.90;;;;;;5118104;27;20039;-51
2022/10/28 12:19:16;;;;;;;14.85;1.80;;;21.40;99.90;;;;;;5101329;27;20043;-57
2022/10/28 12:21:59;;;;;;;8.73;1.40;;;21.60;99.90;;;;;;5111485;27;20043;-49
2022/10/28 12:24:26;;;;;;;11.13;2.10;;;22.00;99.90;;;;;;5111066;28;20042;-47
2022/10/28 12:27:04;;;;;;;8.75;1.88;;;22.00;99.90;;;;;;5110679;28;20432;-52
2022/10/28 12:29:42;;;;;;;10.38;2.83;;;22.10;99.90;;;;;;5110608;28;20497;-51
2022/10/28 12:32:37;;;;;;;14.82;2.17;;;21.90;99.90;;;;;;5110892;28;20404;-48
2022/10/28 12:35:14;;;;;;;11.90;1.65;;;21.90;99.90;;;;;;5107892;28;20046;-47
2022/10/28 12:38:06;;;;;;;13.73;2.53;;;21.30;99.90;;;;;;5104209;28;20388;-46
2022/10/28 12:40:45;;;;;;;11.32;2.33;;;21.20;99.90;;;;;;5077998;28;20036;-57
2022/10/28 12:43:28;;;;;;;15.13;2.27;;;21.10;99.90;;;;;;5110955;28;20118;-56
2022/10/28 12:45:55;;;;;;;9.50;2.25;;;20.60;99.90;;;;;;5110985;28;20020;-59
2022/10/28 12:48:54;;;;;;;11.23;2.08;;;20.40;99.90;;;;;;5110628;28;20080;-54
2022/10/28 12:51:26;;;;;;;10.60;2.00;;;20.50;99.90;;;;;;5110764;28;20092;-49
2022/10/28 12:54:13;;;;;;;11.13;1.70;;;20.20;99.90;;;;;;5110559;28;20084;-48
2022/10/28 12:56:47;;;;;;;10.27;2.10;;;20.20;99.90;;;;;;5109314;28;20537;-49